PROFILE

 METAR AND TAF INFORMATION
ADDS - METARS form results

(0003 UTC 13 November 2018)
http://aviationweather.gov/metar/data/
 
TAF TNCC 122150Z 1300/1324 09010G20KT 9999 SCT016 PROB30 TEMPO 1300/1320 6000 SHRA BKN014 PROB40 TEMPO 1312/1317 09015G25KT 3000 +SHRA/TSRA SCT010CB 

 AIRPORT MAP

 RUNWAY INFORMATION
Runway 11 Runway length 11188 ft Runway width 197 ft
Runway elevation 25 ft Runway displaced threshold 2723 ft Runway heading 102
Runway 29 Runway length 11188 ft Runway width 197 ft
Runway elevation 29 ft Runway displaced threshold 0 ft Runway heading 282

 AIRPORT FREQUENCIES
Type APP Name APP Frequency 119.6 MHZ
Type MISC Name CATS SVC Frequency 131.8 MHZ
Type OPS Name DUTCH OPS Frequency 24.02 MHZ
Type POST Name IGUANA OPS Frequency 25 MHZ
Type TWR Name TWR Frequency 118.3 MHZ

 AIRPORT NEAR NAVIGATION AIDS
Type TACAN Name Hato Frequency 134100 KHZ
Type VOR-DME Name Curacao Frequency 116700 KHZ